Time;durP1;ratioP1;P1;durP2;ratioP2;P2;SDS_P1;SDS_P2;PMS_P1;PMS_P2;Temp;Humidity;BMP_temperature;BMP_pressure;BME280_temperature;BME280_humidity;BME280_pressure;Samples;Min_cycle;Max_cycle;Signal;HPM_P1;HPM_P2
2021/01/20 00:00:25;;;;;;;10.50;5.35;;;2.80;99.90;;;;;;5099379;28;20034;-53
2021/01/20 00:02:51;;;;;;;18.13;6.50;;;2.80;99.90;;;;;;5099819;28;20040;-57
2021/01/20 00:05:17;;;;;;;16.52;4.80;;;2.80;99.90;;;;;;5100097;28;20043;-56
2021/01/20 00:07:42;;;;;;;11.57;4.15;;;2.90;99.90;;;;;;5090789;28;20068;-52
2021/01/20 00:10:08;;;;;;;13.70;5.38;;;2.90;99.90;;;;;;5078780;28;20040;-54
2021/01/20 00:12:34;;;;;;;9.68;5.05;;;3.00;99.90;;;;;;5080036;28;20036;-57
2021/01/20 00:14:59;;;;;;;11.88;5.25;;;3.00;99.90;;;;;;5072168;28;20416;-49
2021/01/20 00:17:25;;;;;;;8.15;3.80;;;3.00;99.90;;;;;;5072070;28;20063;-55
2021/01/20 00:19:50;;;;;;;10.38;3.78;;;2.90;99.90;;;;;;5086178;28;20096;-53
2021/01/20 00:22:16;;;;;;;7.78;4.38;;;2.90;99.90;;;;;;5087319;28;20047;-54
2021/01/20 00:24:42;;;;;;;12.35;3.63;;;3.00;99.90;;;;;;5086609;28;20036;-56
2021/01/20 00:27:08;;;;;;;8.95;3.83;;;3.00;99.90;;;;;;5087431;28;20051;-55
2021/01/20 00:29:34;;;;;;;8.00;3.38;;;3.00;99.90;;;;;;5086046;28;20032;-56
2021/01/20 00:32:00;;;;;;;8.65;3.28;;;3.00;99.90;;;;;;5073792;28;20489;-57
2021/01/20 00:34:26;;;;;;;8.00;4.00;;;3.00;99.90;;;;;;5067227;28;20055;-53
2021/01/20 00:36:51;;;;;;;11.18;4.60;;;3.00;99.90;;;;;;5066557;28;20714;-54
2021/01/20 00:39:17;;;;;;;9.50;3.88;;;3.10;99.90;;;;;;5061345;28;20036;-52
2021/01/20 00:41:44;;;;;;;6.68;2.90;;;3.20;99.90;;;;;;5066562;28;20041;-54
2021/01/20 00:44:10;;;;;;;7.30;3.30;;;3.20;99.90;;;;;;5067566;28;20040;-59
2021/01/20 00:46:36;;;;;;;7.60;2.75;;;3.20;99.90;;;;;;5075493;28;20040;-53
2021/01/20 00:49:01;;;;;;;6.43;3.05;;;3.20;99.90;;;;;;5085036;28;20040;-54
2021/01/20 00:51:27;;;;;;;8.10;3.13;;;3.20;99.90;;;;;;5086608;28;20376;-56
2021/01/20 00:53:52;;;;;;;11.43;3.28;;;3.20;99.90;;;;;;5086626;28;20040;-52
2021/01/20 00:56:18;;;;;;;5.32;2.75;;;3.10;99.90;;;;;;5086120;28;20382;-59
2021/01/20 00:58:43;;;;;;;11.65;3.72;;;3.10;99.90;;;;;;5067041;28;20829;-56
2021/01/20 01:01:09;;;;;;;7.20;2.58;;;3.20;99.90;;;;;;5065470;28;20508;-52
2021/01/20 01:03:35;;;;;;;9.50;2.75;;;3.20;99.90;;;;;;5065779;28;20041;-56
2021/01/20 01:06:00;;;;;;;5.38;2.45;;;3.30;99.90;;;;;;5067283;28;20149;-56
2021/01/20 01:08:27;;;;;;;9.43;2.80;;;3.30;99.90;;;;;;5074779;28;20139;-55
2021/01/20 01:10:53;;;;;;;6.95;2.30;;;3.30;99.90;;;;;;5066496;28;20504;-56
2021/01/20 01:13:20;;;;;;;7.43;2.88;;;3.20;99.90;;;;;;5066528;28;20052;-53
2021/01/20 01:15:46;;;;;;;5.47;2.38;;;3.20;99.90;;;;;;5064364;28;20032;-58
2021/01/20 01:18:11;;;;;;;6.35;2.47;;;3.10;99.90;;;;;;5064759;28;20044;-57
2021/01/20 01:20:37;;;;;;;6.20;2.67;;;3.10;99.90;;;;;;5082647;28;20100;-53
2021/01/20 01:23:03;;;;;;;4.63;2.20;;;3.00;99.90;;;;;;5086209;28;20051;-57
2021/01/20 01:25:28;;;;;;;7.57;2.58;;;3.00;99.90;;;;;;5086070;28;20483;-51
2021/01/20 01:27:54;;;;;;;9.23;2.70;;;3.10;99.90;;;;;;5085691;28;20523;-57
2021/01/20 01:30:19;;;;;;;7.30;3.03;;;3.00;99.90;;;;;;5074550;28;20033;-56
2021/01/20 01:32:45;;;;;;;8.63;2.72;;;3.00;99.90;;;;;;5065974;28;20512;-54
2021/01/20 01:35:12;;;;;;;4.60;2.42;;;3.10;99.90;;;;;;5065843;28;20037;-57
2021/01/20 01:37:38;;;;;;;9.50;2.88;;;3.10;99.90;;;;;;5066754;28;20408;-54
2021/01/20 01:40:05;;;;;;;6.97;2.90;;;3.20;99.90;;;;;;5065347;28;20044;-55
2021/01/20 01:42:30;;;;;;;8.50;2.53;;;3.10;99.90;;;;;;5065728;28;20118;-54
2021/01/20 01:44:56;;;;;;;7.38;2.60;;;3.10;99.90;;;;;;5073608;28;20503;-56
2021/01/20 01:47:22;;;;;;;9.13;2.55;;;3.20;99.90;;;;;;5084828;28;20028;-52
2021/01/20 01:49:48;;;;;;;5.97;2.42;;;3.10;99.90;;;;;;5085095;28;20032;-57
2021/01/20 01:52:14;;;;;;;6.07;2.30;;;3.10;99.90;;;;;;5086043;28;20086;-58
2021/01/20 01:54:40;;;;;;;4.38;1.92;;;3.20;99.90;;;;;;5086605;28;20071;-56
2021/01/20 01:57:06;;;;;;;5.00;2.08;;;3.20;99.90;;;;;;5080701;28;20097;-52
2021/01/20 01:59:32;;;;;;;7.60;3.45;;;3.30;99.90;;;;;;5070286;28;20066;-57
2021/01/20 02:01:57;;;;;;;7.28;2.38;;;3.20;99.90;;;;;;5069493;28;20070;-53
2021/01/20 02:04:23;;;;;;;6.30;2.63;;;3.30;99.90;;;;;;5063913;28;20036;-53
2021/01/20 02:06:54;;;;;;;5.75;2.40;;;3.20;99.90;;;;;;5065387;28;20062;-55
2021/01/20 02:09:21;;;;;;;3.78;2.30;;;3.30;99.90;;;;;;5064904;28;20055;-55
2021/01/20 02:12:14;;;;;;;5.32;2.58;;;3.20;99.90;;;;;;5065016;28;20571;-58
2021/01/20 02:15:19;;;;;;;5.55;2.45;;;3.10;99.90;;;;;;5065069;28;20041;-55
2021/01/20 02:18:01;;;;;;;6.88;2.90;;;3.10;99.90;;;;;;5067341;28;20218;-53
2021/01/20 02:21:11;;;;;;;4.80;2.58;;;3.10;99.90;;;;;;5086366;28;20123;-54
2021/01/20 02:23:42;;;;;;;5.05;2.85;;;3.20;99.90;;;;;;5045537;28;20051;-51
2021/01/20 02:26:46;;;;;;;5.90;2.60;;;3.10;99.90;;;;;;5045345;28;20746;-50
2021/01/20 02:29:27;;;;;;;6.75;2.72;;;3.00;99.90;;;;;;5054965;28;20085;-57
2021/01/20 02:31:55;;;;;;;6.68;2.80;;;3.00;99.90;;;;;;5085496;28;20045;-58
2021/01/20 02:34:21;;;;;;;4.75;2.60;;;3.00;99.90;;;;;;5086155;28;20052;-51
2021/01/20 02:36:49;;;;;;;5.45;2.92;;;3.00;99.90;;;;;;5085034;28;20040;-54
2021/01/20 02:39:17;;;;;;;9.10;3.08;;;2.90;99.90;;;;;;5066023;28;20040;-51
2021/01/20 02:41:43;;;;;;;8.38;3.20;;;2.90;99.90;;;;;;5065023;28;20040;-55
2021/01/20 02:44:08;;;;;;;6.93;3.22;;;2.90;99.90;;;;;;5070325;28;20047;-50
2021/01/20 02:46:36;;;;;;;7.63;2.90;;;3.00;99.90;;;;;;5084928;28;20609;-54
2021/01/20 02:49:01;;;;;;;7.63;3.15;;;2.90;99.90;;;;;;5084285;28;20044;-53
2021/01/20 02:51:54;;;;;;;7.10;3.00;;;2.90;99.90;;;;;;5085257;28;20522;-57
2021/01/20 02:54:21;;;;;;;11.18;3.22;;;2.90;99.90;;;;;;5058635;28;20044;-54
2021/01/20 02:56:51;;;;;;;6.78;3.17;;;2.90;99.90;;;;;;5063601;28;20053;-56
2021/01/20 02:59:19;;;;;;;6.22;3.00;;;2.90;99.90;;;;;;5063529;28;20044;-52
2021/01/20 03:01:50;;;;;;;6.28;3.20;;;2.90;99.90;;;;;;5079476;28;20066;-51
2021/01/20 03:04:17;;;;;;;7.20;3.70;;;2.90;99.90;;;;;;5074246;28;20043;-51
2021/01/20 03:06:45;;;;;;;7.28;3.70;;;3.00;99.90;;;;;;5064095;28;20041;-57
2021/01/20 03:09:13;;;;;;;6.72;3.30;;;2.90;99.90;;;;;;5048426;28;20032;-56
2021/01/20 03:11:49;;;;;;;9.45;3.80;;;2.90;99.90;;;;;;5064452;28;20461;-55
2021/01/20 03:14:24;;;;;;;8.73;3.70;;;2.90;99.90;;;;;;5062163;28;20083;-57
2021/01/20 03:16:50;;;;;;;7.57;4.03;;;2.90;99.90;;;;;;5063370;28;20527;-54
2021/01/20 03:19:15;;;;;;;7.78;4.00;;;3.00;99.90;;;;;;5068271;28;20041;-55
2021/01/20 03:21:41;;;;;;;10.70;4.15;;;3.00;99.90;;;;;;5085169;28;20079;-56
2021/01/20 03:24:07;;;;;;;9.50;4.05;;;3.00;99.90;;;;;;5076696;28;20042;-56
2021/01/20 03:26:33;;;;;;;9.18;4.15;;;3.10;99.90;;;;;;5063924;28;20036;-54
2021/01/20 03:28:59;;;;;;;8.95;4.53;;;3.10;99.90;;;;;;5063598;28;20052;-57
2021/01/20 03:31:24;;;;;;;9.60;4.20;;;3.00;99.90;;;;;;5064046;28;20062;-55
2021/01/20 03:33:50;;;;;;;10.18;4.80;;;3.00;99.90;;;;;;5063812;28;20600;-55
2021/01/20 03:36:15;;;;;;;11.20;4.78;;;3.10;99.90;;;;;;5063767;28;20059;-54
2021/01/20 03:38:41;;;;;;;8.38;4.13;;;3.10;99.90;;;;;;5062701;28;20602;-57
2021/01/20 03:41:07;;;;;;;11.25;5.07;;;3.20;99.90;;;;;;5071591;28;20424;-54
2021/01/20 03:43:33;;;;;;;8.75;4.63;;;3.20;99.90;;;;;;5063062;28;20063;-53
2021/01/20 03:45:59;;;;;;;11.48;4.40;;;3.20;99.90;;;;;;5063090;28;20671;-52
2021/01/20 03:48:24;;;;;;;11.23;4.10;;;3.30;99.90;;;;;;5063972;28;20040;-54
2021/01/20 03:50:50;;;;;;;10.43;4.47;;;3.30;99.90;;;;;;5082816;28;20619;-51
2021/01/20 03:53:16;;;;;;;6.97;3.88;;;3.20;99.90;;;;;;5084258;28;20137;-57
2021/01/20 03:55:41;;;;;;;6.95;4.18;;;3.30;99.90;;;;;;5067188;28;20040;-52
2021/01/20 03:58:07;;;;;;;9.85;4.35;;;3.30;99.90;;;;;;5069136;28;20068;-54
2021/01/20 04:00:32;;;;;;;11.88;4.72;;;3.40;99.90;;;;;;5079956;28;20032;-52
2021/01/20 04:02:58;;;;;;;8.93;3.92;;;3.40;99.90;;;;;;5088065;28;20051;-55
2021/01/20 04:05:24;;;;;;;8.05;4.57;;;3.40;99.90;;;;;;5078202;28;20085;-56
2021/01/20 04:07:49;;;;;;;8.23;3.92;;;3.40;99.90;;;;;;5067909;28;20577;-53
2021/01/20 04:10:15;;;;;;;8.68;4.38;;;3.40;99.90;;;;;;5067064;28;20036;-51
2021/01/20 04:12:41;;;;;;;9.85;3.92;;;3.50;99.90;;;;;;5067632;28;20044;-56
2021/01/20 04:15:09;;;;;;;6.93;4.05;;;3.50;99.90;;;;;;5067046;28;20036;-54
2021/01/20 04:17:35;;;;;;;8.15;3.83;;;3.50;99.90;;;;;;5066734;28;20052;-50
2021/01/20 04:20:02;;;;;;;7.18;4.15;;;3.50;99.90;;;;;;5066366;28;20047;-55
2021/01/20 04:22:28;;;;;;;7.50;3.70;;;3.50;99.90;;;;;;5066858;28;20036;-57
2021/01/20 04:24:54;;;;;;;9.63;3.70;;;3.50;99.90;;;;;;5070867;28;20065;-55
2021/01/20 04:27:19;;;;;;;7.45;3.88;;;3.50;99.90;;;;;;5086951;28;20047;-57
2021/01/20 04:29:45;;;;;;;8.18;3.78;;;3.50;99.90;;;;;;5085540;28;20044;-56
2021/01/20 04:32:10;;;;;;;5.40;3.50;;;3.40;99.90;;;;;;5065562;28;20123;-53
2021/01/20 04:34:36;;;;;;;10.05;3.60;;;3.40;99.90;;;;;;5066287;28;20037;-54
2021/01/20 04:37:02;;;;;;;11.82;3.97;;;3.50;99.90;;;;;;5066144;28;20043;-53
2021/01/20 04:39:27;;;;;;;5.97;3.55;;;3.50;99.90;;;;;;5066352;28;20087;-56
2021/01/20 04:41:53;;;;;;;8.77;3.78;;;3.50;99.90;;;;;;5066044;28;20040;-52
2021/01/20 04:44:19;;;;;;;6.70;3.72;;;3.50;99.90;;;;;;5087373;28;20048;-57
2021/01/20 04:46:46;;;;;;;7.00;3.38;;;3.50;99.90;;;;;;5069537;28;20064;-56
2021/01/20 04:49:14;;;;;;;7.95;3.08;;;3.50;99.90;;;;;;5067035;28;20127;-57
2021/01/20 04:51:41;;;;;;;8.85;3.60;;;3.50;99.90;;;;;;5066540;28;20037;-53
2021/01/20 04:54:11;;;;;;;7.00;3.45;;;3.50;99.90;;;;;;5066383;28;20094;-57
2021/01/20 04:56:38;;;;;;;7.70;3.75;;;3.50;99.90;;;;;;5078625;28;20078;-54
2021/01/20 04:59:04;;;;;;;3.92;2.63;;;3.40;99.90;;;;;;5086161;28;20048;-57
2021/01/20 05:01:31;;;;;;;7.97;3.53;;;3.40;99.90;;;;;;5069813;28;20120;-56
2021/01/20 05:03:58;;;;;;;5.55;3.58;;;3.50;99.90;;;;;;5066394;28;20703;-52
2021/01/20 05:06:24;;;;;;;6.55;3.13;;;3.40;99.90;;;;;;5065670;28;20048;-54
2021/01/20 05:08:49;;;;;;;9.88;3.65;;;3.40;99.90;;;;;;5065517;28;20041;-57
2021/01/20 05:11:15;;;;;;;6.60;3.47;;;3.40;99.90;;;;;;5066446;28;20574;-53
2021/01/20 05:13:42;;;;;;;6.53;3.42;;;3.60;99.90;;;;;;5065892;28;20045;-58
2021/01/20 05:16:07;;;;;;;4.72;3.00;;;3.70;99.90;;;;;;5065629;28;20110;-53
2021/01/20 05:18:48;;;;;;;5.63;3.13;;;3.80;99.90;;;;;;5065516;28;20044;-57
2021/01/20 05:21:18;;;;;;;8.80;3.53;;;3.80;99.90;;;;;;5074535;28;20097;-55
2021/01/20 05:23:44;;;;;;;8.27;3.13;;;3.80;99.90;;;;;;5074626;28;20044;-52
2021/01/20 05:26:09;;;;;;;7.70;3.28;;;3.70;99.90;;;;;;5071963;28;20028;-55
2021/01/20 05:28:36;;;;;;;6.90;3.38;;;3.80;99.90;;;;;;5085627;28;20620;-56
2021/01/20 05:31:03;;;;;;;5.57;3.10;;;3.90;99.90;;;;;;5073285;28;20405;-51
2021/01/20 05:33:37;;;;;;;6.75;3.30;;;3.90;99.90;;;;;;5065621;28;20036;-57
2021/01/20 05:36:09;;;;;;;7.63;3.67;;;3.80;99.90;;;;;;5078185;28;20040;-55
2021/01/20 05:38:37;;;;;;;15.63;7.65;;;3.70;99.90;;;;;;5065846;28;20098;-56
2021/01/20 05:41:18;;;;;;;8.10;3.40;;;3.70;99.90;;;;;;5063320;28;20119;-55
2021/01/20 05:43:44;;;;;;;6.75;2.97;;;3.60;99.90;;;;;;5064447;28;20441;-57
2021/01/20 05:46:10;;;;;;;7.80;4.15;;;3.60;99.90;;;;;;5064095;28;20032;-56
2021/01/20 05:48:49;;;;;;;5.18;2.97;;;3.50;99.90;;;;;;5064540;28;20346;-55
2021/01/20 05:51:15;;;;;;;8.80;4.25;;;3.60;99.90;;;;;;5079373;28;20048;-52
2021/01/20 05:54:08;;;;;;;6.90;3.80;;;3.60;99.90;;;;;;5084644;28;20125;-53
2021/01/20 05:56:34;;;;;;;6.95;3.47;;;3.60;99.90;;;;;;5082067;28;20190;-57
2021/01/20 05:58:59;;;;;;;5.82;2.55;;;3.70;99.90;;;;;;5084229;28;20092;-55
2021/01/20 06:01:28;;;;;;;6.18;2.95;;;3.60;99.90;;;;;;5084149;28;20066;-56
2021/01/20 06:03:54;;;;;;;5.85;3.05;;;3.60;99.90;;;;;;5083560;28;20081;-57
2021/01/20 06:06:21;;;;;;;5.70;2.92;;;3.70;99.90;;;;;;5066608;28;20093;-57
2021/01/20 06:08:47;;;;;;;7.50;2.97;;;3.80;99.90;;;;;;5072877;28;20163;-56
2021/01/20 06:11:14;;;;;;;8.10;3.55;;;3.70;99.90;;;;;;5064828;28;20037;-56
2021/01/20 06:13:40;;;;;;;4.95;2.70;;;3.90;99.90;;;;;;5064578;28;20173;-56
2021/01/20 06:16:22;;;;;;;6.07;3.63;;;4.00;99.90;;;;;;5064150;28;20036;-51
2021/01/20 06:18:54;;;;;;;6.47;3.20;;;4.10;99.90;;;;;;5078120;28;20051;-54
2021/01/20 06:21:20;;;;;;;5.53;2.70;;;4.10;99.90;;;;;;5065087;28;20033;-56
2021/01/20 06:23:56;;;;;;;5.50;2.70;;;4.10;99.90;;;;;;5064304;28;20547;-56
2021/01/20 06:26:25;;;;;;;5.15;2.13;;;4.00;99.90;;;;;;5064633;28;20040;-55
2021/01/20 06:28:55;;;;;;;5.03;2.55;;;4.00;99.90;;;;;;5064395;28;20492;-57
2021/01/20 06:31:22;;;;;;;6.03;2.50;;;4.10;99.90;;;;;;5063848;28;20044;-58
2021/01/20 06:33:48;;;;;;;5.05;2.40;;;4.20;99.90;;;;;;5064248;28;20047;-52
2021/01/20 06:36:30;;;;;;;5.05;2.22;;;4.30;99.90;;;;;;5063982;28;20033;-55
2021/01/20 06:38:56;;;;;;;5.25;2.53;;;4.40;99.90;;;;;;5064171;28;20036;-55
2021/01/20 06:41:40;;;;;;;5.75;2.53;;;4.50;99.90;;;;;;5068346;28;20033;-55
2021/01/20 06:44:07;;;;;;;11.18;5.45;;;4.60;99.90;;;;;;5063677;28;20040;-56
2021/01/20 06:46:33;;;;;;;5.63;2.53;;;4.60;99.90;;;;;;5063742;28;20486;-55
2021/01/20 06:48:59;;;;;;;4.50;2.35;;;4.70;99.90;;;;;;5063435;28;20047;-53
2021/01/20 06:51:24;;;;;;;11.25;3.83;;;4.80;99.90;;;;;;5063408;28;20048;-53
2021/01/20 06:54:11;;;;;;;6.35;3.67;;;4.80;99.90;;;;;;5064952;28;20075;-56
2021/01/20 06:56:43;;;;;;;3.58;2.45;;;4.80;99.90;;;;;;5064748;28;20094;-50
2021/01/20 06:59:17;;;;;;;4.65;2.30;;;4.90;99.90;;;;;;5018922;22;20042;-55
2021/01/20 07:02:03;;;;;;;3.45;2.00;;;4.90;99.90;;;;;;5006783;28;20104;-58
2021/01/20 07:04:40;;;;;;;5.13;2.63;;;4.90;99.90;;;;;;5003840;28;20037;-55
2021/01/20 07:07:10;;;;;;;3.65;1.77;;;4.80;99.90;;;;;;5004641;28;20052;-56
2021/01/20 07:09:57;;;;;;;5.57;2.08;;;4.80;99.90;;;;;;5009917;28;20041;-58
2021/01/20 07:12:26;;;;;;;5.30;1.80;;;4.90;99.90;;;;;;5005935;23;20088;-76
2021/01/20 07:14:53;;;;;;;3.25;1.95;;;4.90;99.90;;;;;;5056627;28;20044;-75
2021/01/20 07:17:20;;;;;;;3.10;1.75;;;5.00;99.90;;;;;;5027876;28;20053;-75
2021/01/20 07:19:47;;;;;;;2.55;1.48;;;4.90;99.90;;;;;;5007532;28;20038;-76
2021/01/20 07:22:14;;;;;;;3.38;1.60;;;4.90;99.90;;;;;;5006874;28;20037;-76
2021/01/20 07:24:40;;;;;;;4.10;2.13;;;4.90;99.90;;;;;;5007290;28;20095;-75
2021/01/20 07:27:07;;;;;;;6.07;2.63;;;4.90;99.90;;;;;;5002042;28;20038;-77
2021/01/20 07:29:33;;;;;;;2.50;1.30;;;4.90;99.90;;;;;;5002413;28;20066;-76
2021/01/20 07:32:00;;;;;;;2.90;1.75;;;4.80;99.90;;;;;;5008293;28;20487;-76
2021/01/20 07:34:37;;;;;;;3.40;1.95;;;4.80;99.90;;;;;;5009171;28;20168;-74
2021/01/20 07:37:22;;;;;;;2.35;1.40;;;4.90;99.90;;;;;;5009893;28;20038;-75
2021/01/20 07:39:47;;;;;;;3.67;1.70;;;4.90;99.90;;;;;;5001673;28;20086;-74
2021/01/20 07:42:13;;;;;;;2.35;1.20;;;4.90;99.90;;;;;;5001567;28;20483;-74
2021/01/20 07:44:49;;;;;;;4.25;1.63;;;4.90;99.90;;;;;;5009035;28;20045;-74
2021/01/20 07:47:15;;;;;;;2.67;1.58;;;5.00;99.90;;;;;;5008999;28;20048;-77
2021/01/20 07:49:53;;;;;;;9.93;2.92;;;4.90;99.90;;;;;;5008471;28;20038;-76
2021/01/20 07:52:19;;;;;;;14.88;7.10;;;4.90;99.90;;;;;;5009347;28;20136;-76
2021/01/20 07:54:48;;;;;;;3.30;1.70;;;4.90;99.90;;;;;;5009117;28;20133;-76
2021/01/20 07:57:22;;;;;;;1.98;1.40;;;4.90;99.90;;;;;;5007808;28;20706;-76
2021/01/20 08:00:03;;;;;;;3.60;1.77;;;5.00;99.90;;;;;;5009576;28;20141;-76
2021/01/20 08:02:29;;;;;;;3.25;1.60;;;5.00;99.90;;;;;;5008705;28;20061;-76
2021/01/20 08:05:02;;;;;;;3.67;1.73;;;5.00;99.90;;;;;;5009326;28;20038;-77
2021/01/20 08:07:28;;;;;;;4.80;2.70;;;4.90;99.90;;;;;;5009224;28;20096;-76
2021/01/20 08:09:54;;;;;;;2.75;1.75;;;4.90;99.90;;;;;;4999694;28;20038;-79
2021/01/20 08:12:29;;;;;;;3.30;1.80;;;4.90;99.90;;;;;;5001840;28;20061;-77
2021/01/20 08:14:56;;;;;;;3.55;1.83;;;4.90;99.90;;;;;;4989521;28;20049;-76
2021/01/20 08:17:22;;;;;;;3.10;1.65;;;4.90;99.90;;;;;;4988977;28;20038;-77
2021/01/20 08:19:49;;;;;;;6.95;2.50;;;4.90;99.90;;;;;;4990893;28;20037;-77
2021/01/20 08:22:16;;;;;;;7.53;3.47;;;5.00;99.90;;;;;;4991613;28;20038;-76
2021/01/20 08:24:51;;;;;;;3.60;1.90;;;4.90;99.90;;;;;;4990745;28;20046;-77
2021/01/20 08:27:27;;;;;;;3.42;1.73;;;4.90;99.90;;;;;;4998641;28;20113;-77
2021/01/20 08:29:57;;;;;;;8.82;2.00;;;4.90;99.90;;;;;;5012028;28;20254;-75
2021/01/20 08:32:25;;;;;;;2.30;1.35;;;4.90;99.90;;;;;;5013819;28;20097;-76
2021/01/20 08:34:52;;;;;;;3.75;1.70;;;5.00;99.90;;;;;;5013337;28;20045;-76
2021/01/20 08:37:36;;;;;;;2.95;1.75;;;5.10;99.90;;;;;;5010788;28;20049;-76
2021/01/20 08:40:07;;;;;;;2.30;1.40;;;5.10;99.90;;;;;;5010282;28;20037;-76
2021/01/20 08:42:34;;;;;;;5.75;1.90;;;5.10;99.90;;;;;;5005629;28;20048;-75
2021/01/20 08:45:09;;;;;;;4.82;1.67;;;5.10;99.90;;;;;;5009205;28;20037;-73
2021/01/20 08:47:55;;;;;;;3.78;1.83;;;5.10;99.90;;;;;;5009664;28;20498;-75
2021/01/20 08:50:41;;;;;;;3.30;1.80;;;5.10;99.90;;;;;;5008586;28;20038;-74
2021/01/20 08:53:13;;;;;;;3.22;1.80;;;5.10;99.90;;;;;;5009244;28;20061;-76
2021/01/20 08:55:49;;;;;;;3.80;2.35;;;5.10;99.90;;;;;;5009433;28;20096;-75
2021/01/20 08:58:24;;;;;;;2.40;1.55;;;5.20;99.90;;;;;;5008841;28;20044;-74
2021/01/20 09:01:09;;;;;;;4.75;1.80;;;5.20;99.90;;;;;;5007961;28;20034;-75
2021/01/20 09:03:38;;;;;;;5.43;2.03;;;5.10;99.90;;;;;;5005467;28;20418;-74
2021/01/20 09:06:15;;;;;;;5.70;3.28;;;5.20;99.90;;;;;;4988986;28;20050;-76
2021/01/20 09:08:41;;;;;;;3.45;1.58;;;5.20;99.90;;;;;;4989458;28;20475;-75
2021/01/20 09:11:07;;;;;;;3.70;1.73;;;5.20;99.90;;;;;;4996595;28;20075;-76
2021/01/20 09:13:34;;;;;;;3.42;2.05;;;5.20;99.90;;;;;;4999419;28;20038;-74
2021/01/20 09:16:00;;;;;;;4.90;2.60;;;5.20;99.90;;;;;;5007034;28;20046;-75
2021/01/20 09:18:26;;;;;;;11.73;6.13;;;5.20;99.90;;;;;;5007771;28;20140;-72
2021/01/20 09:20:54;;;;;;;3.80;1.80;;;5.20;99.90;;;;;;5006992;28;20034;-74
2021/01/20 09:23:21;;;;;;;6.90;2.13;;;5.20;99.90;;;;;;5005683;28;20076;-74
2021/01/20 09:25:48;;;;;;;3.60;2.10;;;5.20;99.90;;;;;;5007929;28;20049;-74
2021/01/20 09:28:15;;;;;;;5.90;1.90;;;5.20;99.90;;;;;;5007990;28;20099;-74
2021/01/20 09:30:41;;;;;;;4.07;2.15;;;5.20;99.90;;;;;;5007778;28;20042;-74
2021/01/20 09:33:07;;;;;;;14.77;6.07;;;5.20;99.90;;;;;;5008899;28;20042;-75
2021/01/20 09:35:32;;;;;;;;;;;5.20;99.90;;;;;;5008502;28;20376;-75
2021/01/20 09:37:59;;;;;;;4.07;2.00;;;5.20;99.90;;;;;;4998094;28;19932;-74
2021/01/20 09:40:26;;;;;;;8.88;5.15;;;5.30;99.90;;;;;;5002998;28;20134;-76
2021/01/20 09:42:53;;;;;;;5.47;2.70;;;5.30;99.90;;;;;;5005514;28;20041;-74
2021/01/20 09:45:26;;;;;;;5.70;1.80;;;5.30;99.90;;;;;;5009026;28;20263;-75
2021/01/20 09:47:52;;;;;;;5.53;1.75;;;5.30;99.90;;;;;;5008958;28;20542;-73
2021/01/20 09:50:17;;;;;;;4.97;2.10;;;5.40;99.90;;;;;;5008491;28;20036;-76
2021/01/20 09:52:44;;;;;;;;;;;5.50;99.90;;;;;;5008524;28;20065;-73
2021/01/20 09:55:11;;;;;;;5.15;2.53;;;5.50;99.90;;;;;;5008432;28;19925;-75
2021/01/20 09:57:37;;;;;;;5.38;2.00;;;5.50;99.90;;;;;;5009288;28;20137;-75
2021/01/20 10:00:05;;;;;;;3.33;2.05;;;5.60;99.90;;;;;;5007057;28;20038;-75
2021/01/20 10:02:30;;;;;;;6.40;4.00;;;5.60;99.90;;;;;;4971269;28;20169;-75
2021/01/20 10:04:58;;;;;;;7.53;3.17;;;5.60;99.90;;;;;;4989309;28;20106;-73
2021/01/20 10:07:23;;;;;;;4.93;2.47;;;5.70;99.90;;;;;;4988530;28;20398;-75
2021/01/20 10:09:49;;;;;;;5.65;2.40;;;5.60;99.90;;;;;;5002743;28;20124;-75
2021/01/20 10:12:15;;;;;;;;;;;5.70;99.90;;;;;;5008515;28;20121;-75
2021/01/20 10:14:42;;;;;;;5.72;2.53;;;5.70;99.90;;;;;;5007717;28;19921;-75
2021/01/20 10:17:09;;;;;;;10.57;3.78;;;5.80;99.90;;;;;;5006534;28;20096;-74
2021/01/20 10:19:34;;;;;;;6.13;2.65;;;5.70;99.90;;;;;;5007266;28;20491;-75
2021/01/20 10:22:00;;;;;;;;;;;5.70;99.90;;;;;;5006536;28;20049;-75
2021/01/20 10:24:26;;;;;;;5.00;2.40;;;5.70;99.90;;;;;;5007120;28;20607;-75
2021/01/20 10:26:52;;;;;;;;;;;5.70;99.90;;;;;;5007226;28;20053;-73
2021/01/20 10:29:18;;;;;;;3.90;2.47;;;5.70;99.90;;;;;;5007869;28;19924;-76
2021/01/20 10:31:44;;;;;;;7.65;3.05;;;5.70;99.90;;;;;;5005900;28;20095;-74
2021/01/20 10:34:13;;;;;;;4.10;2.78;;;5.70;99.90;;;;;;5006354;28;20049;-74
2021/01/20 10:36:40;;;;;;;7.30;3.28;;;5.60;99.60;;;;;;5005852;28;20041;-74
2021/01/20 10:39:08;;;;;;;6.20;2.70;;;5.60;99.80;;;;;;5000855;28;20085;-74
2021/01/20 10:41:34;;;;;;;5.28;2.67;;;5.70;99.20;;;;;;5000590;28;20059;-73
2021/01/20 10:43:59;;;;;;;5.55;3.08;;;5.70;98.80;;;;;;4986736;28;20049;-74
2021/01/20 10:46:25;;;;;;;;;;;5.80;98.60;;;;;;4995387;28;20495;-76
2021/01/20 10:49:00;;;;;;;5.40;2.70;;;5.90;98.60;;;;;;5006353;28;20067;-76
2021/01/20 10:51:33;;;;;;;5.55;2.92;;;6.00;98.30;;;;;;5018624;28;20037;-76
2021/01/20 10:54:00;;;;;;;8.18;2.83;;;6.10;98.20;;;;;;5026806;28;20049;-76
2021/01/20 10:56:26;;;;;;;6.47;3.10;;;6.20;98.40;;;;;;5026222;28;20048;-80
2021/01/20 10:58:51;;;;;;;5.95;3.25;;;6.20;97.80;;;;;;5009538;28;20087;-75
2021/01/20 11:01:17;;;;;;;;;;;6.20;97.60;;;;;;5006661;28;20038;-75
2021/01/20 11:03:44;;;;;;;9.32;2.60;;;6.20;98.40;;;;;;5007791;28;20293;-74
2021/01/20 11:06:10;;;;;;;5.22;2.75;;;6.10;97.80;;;;;;5009045;28;20045;-77
2021/01/20 11:08:37;;;;;;;6.30;2.85;;;6.10;97.70;;;;;;5008593;28;20048;-75
2021/01/20 11:11:03;;;;;;;6.63;2.70;;;6.10;98.10;;;;;;5006235;28;20758;-74
2021/01/20 11:13:32;;;;;;;4.50;2.47;;;6.10;97.50;;;;;;5016821;28;20049;-75
2021/01/20 11:15:57;;;;;;;5.88;3.00;;;6.00;97.70;;;;;;5025759;28;20033;-75
2021/01/20 11:18:23;;;;;;;;;;;6.10;97.70;;;;;;5026932;28;20044;-73
2021/01/20 11:20:49;;;;;;;13.23;7.28;;;6.20;97.60;;;;;;5019004;28;20546;-74
2021/01/20 11:23:19;;;;;;;;;;;6.20;97.90;;;;;;5006369;28;20041;-73
2021/01/20 11:25:52;;;;;;;9.05;3.55;;;6.30;97.00;;;;;;5006287;28;20859;-74
2021/01/20 11:28:18;;;;;;;6.60;2.70;;;6.30;97.10;;;;;;5007001;28;20049;-73
2021/01/20 11:30:44;;;;;;;5.75;2.60;;;6.40;96.40;;;;;;5005574;28;20049;-75
2021/01/20 11:33:10;;;;;;;;;;;6.40;96.50;;;;;;5006809;28;20050;-74
2021/01/20 11:35:37;;;;;;;4.47;2.33;;;6.40;96.50;;;;;;5005748;28;20011;-75
2021/01/20 11:38:03;;;;;;;14.07;5.75;;;6.40;96.70;;;;;;5004366;28;20042;-76
2021/01/20 11:40:31;;;;;;;6.68;3.95;;;6.30;97.00;;;;;;4995906;28;20052;-75
2021/01/20 11:42:57;;;;;;;5.50;2.83;;;6.30;96.70;;;;;;5004243;28;20068;-75
2021/01/20 11:45:34;;;;;;;4.75;2.65;;;6.30;96.50;;;;;;5002259;28;20068;-72
2021/01/20 11:48:02;;;;;;;5.93;3.17;;;6.40;96.00;;;;;;4985527;28;20117;-73
2021/01/20 11:50:28;;;;;;;4.65;2.78;;;6.50;95.80;;;;;;4987791;28;20057;-74
2021/01/20 11:52:55;;;;;;;5.90;3.00;;;6.50;96.20;;;;;;4986799;28;20054;-76
2021/01/20 11:55:22;;;;;;;11.95;5.47;;;6.50;95.00;;;;;;4986577;28;20034;-73
2021/01/20 11:57:48;;;;;;;8.20;3.05;;;6.40;95.10;;;;;;4987505;28;20073;-75
2021/01/20 12:00:14;;;;;;;;;;;6.40;95.90;;;;;;4986643;28;20691;-75
2021/01/20 12:02:41;;;;;;;6.97;3.70;;;6.30;95.80;;;;;;5005830;28;19926;-75
2021/01/20 12:05:12;;;;;;;8.50;3.78;;;6.30;95.50;;;;;;5007184;28;20133;-74
2021/01/20 12:07:43;;;;;;;12.18;5.82;;;6.20;95.80;;;;;;5005374;28;20113;-76
2021/01/20 12:10:10;;;;;;;9.00;4.70;;;6.10;95.90;;;;;;5000460;28;20042;-75
2021/01/20 12:12:36;;;;;;;5.28;2.97;;;6.20;95.90;;;;;;5008547;28;20124;-76
2021/01/20 12:15:02;;;;;;;;;;;6.20;95.60;;;;;;5011192;28;20157;-76
2021/01/20 12:17:29;;;;;;;6.73;3.90;;;6.20;95.90;;;;;;5008618;28;19925;-74
2021/01/20 12:19:55;;;;;;;6.43;3.40;;;6.30;95.90;;;;;;5010064;28;20057;-75
2021/01/20 12:22:23;;;;;;;8.27;3.58;;;6.30;96.00;;;;;;4994793;28;20038;-76
2021/01/20 12:24:48;;;;;;;;;;;6.40;95.20;;;;;;4989912;28;20045;-75
2021/01/20 12:27:14;;;;;;;6.43;2.40;;;6.40;94.90;;;;;;5001898;28;19929;-74
2021/01/20 12:29:40;;;;;;;;;;;6.50;95.40;;;;;;5010347;28;20056;-75
2021/01/20 12:32:06;;;;;;;6.50;2.75;;;6.50;95.20;;;;;;5007915;28;19923;-75
2021/01/20 12:34:31;;;;;;;;;;;6.50;95.00;;;;;;5009354;28;20052;-74
2021/01/20 12:36:57;;;;;;;7.40;3.15;;;6.60;95.50;;;;;;5007848;28;19917;-76
2021/01/20 12:39:24;;;;;;;7.22;2.60;;;6.70;94.70;;;;;;4998690;28;20049;-76
2021/01/20 12:41:50;;;;;;;;;;;6.80;94.80;;;;;;4997234;28;20042;-74
2021/01/20 12:44:16;;;;;;;6.07;3.42;;;6.80;94.20;;;;;;4988905;28;20744;-74
2021/01/20 12:46:42;;;;;;;7.07;2.75;;;6.80;93.90;;;;;;4996713;28;20112;-75
2021/01/20 12:49:08;;;;;;;;;;;6.90;93.70;;;;;;5008387;28;20045;-73
2021/01/20 12:51:34;;;;;;;6.85;2.33;;;6.90;94.00;;;;;;5008300;28;19918;-76
2021/01/20 12:54:01;;;;;;;;;;;7.00;94.00;;;;;;5008601;28;20053;-74
2021/01/20 12:56:30;;;;;;;6.45;2.90;;;6.90;93.60;;;;;;5008436;28;19976;-74
2021/01/20 12:58:57;;;;;;;5.43;2.38;;;6.80;93.40;;;;;;5007427;28;20042;-75
2021/01/20 13:01:23;;;;;;;9.43;2.60;;;6.90;93.60;;;;;;5007104;28;20088;-74
2021/01/20 13:03:48;;;;;;;;;;;6.90;93.50;;;;;;5008752;28;20085;-74
2021/01/20 13:06:14;;;;;;;8.73;2.88;;;6.90;93.40;;;;;;5009064;28;19932;-74